createdAt,value
2018-06-16T00:00:45.203Z,0.00
2018-06-16T00:01:45.213Z,0.00
2018-06-16T00:02:45.216Z,0.00
2018-06-16T00:03:45.220Z,0.00
2018-06-16T00:04:45.223Z,0.00
2018-06-16T00:05:45.228Z,0.00
2018-06-16T00:06:45.238Z,0.00
2018-06-16T00:07:45.242Z,0.00
2018-06-16T00:08:45.249Z,0.00
2018-06-16T00:09:45.252Z,0.00
2018-06-16T00:10:45.257Z,0.00
2018-06-16T00:11:45.263Z,0.00
2018-06-16T00:12:45.270Z,0.00
2018-06-16T00:13:45.328Z,0.00
2018-06-16T00:14:45.277Z,0.00
2018-06-16T00:15:45.284Z,0.00
2018-06-16T00:16:45.295Z,0.00
2018-06-16T00:17:45.295Z,0.00
2018-06-16T00:18:45.302Z,0.00
2018-06-16T00:19:45.303Z,0.00
2018-06-16T00:20:45.312Z,0.00
2018-06-16T00:21:45.319Z,0.00
2018-06-16T00:22:45.321Z,0.00
2018-06-16T00:23:45.327Z,0.00
2018-06-16T00:24:45.332Z,0.00
2018-06-16T00:25:45.335Z,0.00
2018-06-16T00:26:45.341Z,0.00
2018-06-16T00:27:45.352Z,0.00
2018-06-16T00:28:45.352Z,0.00
2018-06-16T00:29:45.357Z,0.00
2018-06-16T00:30:45.363Z,0.00
2018-06-16T00:31:45.370Z,0.00
2018-06-16T00:32:45.375Z,0.00
2018-06-16T00:33:45.379Z,0.00
2018-06-16T00:34:45.382Z,0.00
2018-06-16T00:35:45.387Z,0.00
2018-06-16T00:36:45.397Z,0.00
2018-06-16T00:37:45.402Z,0.00
2018-06-16T00:38:45.407Z,0.00
2018-06-16T00:39:45.413Z,0.00
2018-06-16T00:40:45.415Z,0.00
2018-06-16T00:41:45.421Z,0.00
2018-06-16T00:42:45.436Z,0.00
2018-06-16T00:43:45.431Z,0.00
2018-06-16T00:44:45.436Z,0.00
2018-06-16T00:45:45.437Z,0.00
2018-06-16T00:46:45.448Z,0.00
2018-06-16T00:47:45.451Z,0.00
2018-06-16T00:48:45.460Z,0.00
2018-06-16T00:49:45.458Z,0.00
2018-06-16T00:50:45.471Z,0.00
2018-06-16T00:51:45.472Z,0.00
2018-06-16T00:52:45.477Z,0.00
2018-06-16T00:53:45.479Z,0.00
2018-06-16T00:54:45.484Z,0.00
2018-06-16T00:55:45.490Z,0.00
2018-06-16T00:56:45.495Z,0.00
2018-06-16T00:57:45.504Z,0.00
2018-06-16T00:58:45.514Z,0.00
2018-06-16T00:59:45.510Z,0.00
2018-06-16T01:00:45.516Z,0.00
2018-06-16T01:01:45.518Z,0.00
2018-06-16T01:02:45.528Z,0.00
2018-06-16T01:03:45.531Z,0.00
2018-06-16T01:04:45.536Z,0.00
2018-06-16T01:05:45.541Z,0.00
2018-06-16T01:06:45.543Z,0.00
2018-06-16T01:07:45.554Z,0.00
2018-06-16T01:08:45.555Z,0.00
2018-06-16T01:09:45.558Z,0.00
2018-06-16T01:10:45.570Z,0.00
2018-06-16T01:11:45.573Z,0.00
2018-06-16T01:12:45.579Z,0.00
2018-06-16T01:13:45.582Z,0.00
2018-06-16T01:14:45.585Z,0.00
2018-06-16T01:15:45.591Z,0.00
2018-06-16T01:16:45.597Z,0.00
2018-06-16T01:17:45.601Z,0.00
2018-06-16T01:18:45.603Z,0.00
2018-06-16T01:21:17.292Z,0.00
2018-06-16T01:22:17.240Z,0.00
2018-06-16T01:23:17.251Z,0.00
2018-06-16T01:24:17.255Z,0.00
2018-06-16T01:25:17.262Z,0.00
2018-06-16T01:26:17.261Z,0.00
2018-06-16T01:27:17.264Z,0.00
2018-06-16T01:28:17.270Z,0.00
2018-06-16T01:29:17.280Z,0.00
2018-06-16T01:30:17.283Z,0.00
2018-06-16T01:31:17.285Z,0.00
2018-06-16T01:32:17.291Z,0.00
2018-06-16T01:33:17.301Z,0.00
2018-06-16T01:34:17.302Z,0.00
2018-06-16T01:35:17.304Z,0.00
2018-06-16T01:36:17.315Z,0.00
2018-06-16T01:37:17.320Z,0.00
2018-06-16T01:38:17.321Z,0.00
2018-06-16T01:39:17.325Z,0.00
2018-06-16T01:40:17.332Z,0.00
2018-06-16T01:41:17.337Z,0.00
2018-06-16T01:42:17.344Z,0.00
2018-06-16T01:43:17.346Z,0.00
2018-06-16T01:44:17.350Z,0.00
2018-06-16T01:45:17.357Z,0.00
2018-06-16T01:46:17.361Z,0.00
2018-06-16T01:47:17.371Z,0.00
2018-06-16T01:48:17.369Z,0.00
2018-06-16T01:49:17.375Z,0.00
2018-06-16T01:50:17.382Z,0.00
2018-06-16T01:51:17.387Z,0.00
2018-06-16T01:52:17.393Z,0.00
2018-06-16T01:53:17.396Z,0.00
2018-06-16T01:54:17.397Z,0.00
2018-06-16T01:55:17.403Z,0.00
2018-06-16T01:56:17.415Z,0.00
2018-06-16T01:57:17.416Z,0.00
2018-06-16T01:58:17.418Z,0.00
2018-06-16T01:59:17.427Z,0.00
2018-06-16T02:00:17.428Z,0.00
2018-06-16T02:01:17.432Z,0.00
2018-06-16T02:02:17.436Z,0.00
2018-06-16T02:03:17.441Z,0.00
2018-06-16T02:04:17.448Z,0.00
2018-06-16T02:05:17.454Z,0.00
2018-06-16T02:06:17.457Z,0.00
2018-06-16T02:07:17.460Z,0.00
2018-06-16T02:08:17.469Z,0.00
2018-06-16T02:09:17.469Z,0.00
2018-06-16T02:10:17.475Z,0.00
2018-06-16T02:11:17.481Z,0.00
2018-06-16T02:12:17.484Z,0.00
2018-06-16T02:13:17.491Z,0.00
2018-06-16T02:14:17.492Z,0.00
2018-06-16T02:15:17.503Z,0.00
2018-06-16T02:16:17.502Z,0.00
2018-06-16T02:17:17.508Z,0.00
2018-06-16T02:18:17.511Z,0.00
2018-06-16T02:19:17.517Z,0.00
2018-06-16T02:20:17.529Z,0.00
2018-06-16T02:21:17.529Z,0.00
2018-06-16T02:22:17.530Z,0.00
2018-06-16T02:23:17.535Z,0.00
2018-06-16T02:24:17.542Z,0.00
2018-06-16T02:25:17.553Z,0.00
2018-06-16T02:26:17.550Z,0.00
2018-06-16T02:27:17.554Z,0.00
2018-06-16T02:28:17.558Z,0.00
2018-06-16T02:29:17.561Z,0.00
2018-06-16T02:30:17.570Z,0.00
2018-06-16T02:31:17.573Z,0.00
2018-06-16T02:32:17.579Z,0.00
2018-06-16T02:33:17.583Z,0.00
2018-06-16T02:34:17.589Z,0.00
2018-06-16T02:35:17.590Z,0.00
2018-06-16T02:36:17.606Z,0.00
2018-06-16T02:37:17.598Z,0.00
2018-06-16T02:38:17.605Z,0.00
2018-06-16T02:39:17.609Z,0.00
2018-06-16T02:40:17.613Z,0.00
2018-06-16T02:41:17.625Z,0.00
2018-06-16T02:42:17.622Z,0.00
2018-06-16T02:43:17.627Z,0.00
2018-06-16T02:44:17.629Z,0.00
2018-06-16T02:45:17.640Z,0.00
2018-06-16T02:46:17.641Z,4.00
2018-06-16T02:47:17.644Z,4.00
2018-06-16T02:48:17.650Z,0.00
2018-06-16T02:49:17.655Z,0.00
2018-06-16T02:50:17.677Z,4.00
2018-06-16T02:51:17.662Z,4.00
2018-06-16T02:52:17.667Z,4.00
2018-06-16T02:53:17.671Z,4.00
2018-06-16T02:54:17.683Z,4.00
2018-06-16T02:55:17.683Z,4.00
2018-06-16T02:56:17.687Z,4.00
2018-06-16T02:57:17.690Z,8.00
2018-06-16T02:58:17.699Z,4.00
2018-06-16T02:59:17.701Z,4.00
2018-06-16T03:00:17.704Z,8.00
2018-06-16T03:01:17.711Z,8.00
2018-06-16T03:02:17.715Z,12.00
2018-06-16T03:03:17.737Z,12.00
2018-06-16T03:04:17.723Z,12.00
2018-06-16T03:05:17.734Z,16.00
2018-06-16T03:06:17.735Z,12.00
2018-06-16T03:07:17.735Z,16.00
2018-06-16T03:08:17.742Z,20.00
2018-06-16T03:09:17.745Z,20.00
2018-06-16T03:10:17.757Z,24.00
2018-06-16T03:11:17.755Z,24.00
2018-06-16T03:12:17.761Z,28.00
2018-06-16T03:13:17.761Z,28.00
2018-06-16T03:14:17.771Z,32.00
2018-06-16T03:15:17.773Z,36.00
2018-06-16T03:16:17.777Z,40.00
2018-06-16T03:17:17.783Z,40.00
2018-06-16T03:18:17.803Z,44.00
2018-06-16T03:19:17.789Z,48.00
2018-06-16T03:20:17.794Z,52.00
2018-06-16T03:21:17.798Z,56.00
2018-06-16T03:22:17.819Z,60.00
2018-06-16T03:23:17.806Z,60.00
2018-06-16T03:24:17.812Z,64.00
2018-06-16T03:25:17.820Z,72.00
2018-06-16T03:26:17.819Z,76.00
2018-06-16T03:27:17.827Z,80.00
2018-06-16T03:28:17.830Z,88.00
2018-06-16T03:29:17.839Z,92.00
2018-06-16T03:30:17.843Z,96.00
2018-06-16T03:31:17.840Z,104.00
2018-06-16T03:32:17.846Z,112.00
2018-06-16T03:33:17.868Z,120.00
2018-06-16T03:34:17.861Z,124.00
2018-06-16T03:35:17.859Z,132.00
2018-06-16T03:36:17.871Z,140.00
2018-06-16T03:37:17.868Z,144.00
2018-06-16T03:38:17.875Z,152.00
2018-06-16T03:39:17.880Z,160.00
2018-06-16T03:40:17.881Z,168.00
2018-06-16T03:41:17.888Z,176.00
2018-06-16T03:42:17.891Z,184.00
2018-06-16T03:43:17.893Z,196.00
2018-06-16T03:44:17.899Z,204.00
2018-06-16T03:45:17.903Z,212.00
2018-06-16T03:46:17.909Z,220.00
2018-06-16T03:47:17.910Z,228.00
2018-06-16T03:48:17.920Z,236.00
2018-06-16T03:49:17.943Z,248.00
2018-06-16T03:50:17.925Z,256.00
2018-06-16T03:51:17.929Z,264.00
2018-06-16T03:52:17.935Z,276.00
2018-06-16T03:53:17.936Z,284.00
2018-06-16T03:54:17.956Z,288.00
2018-06-16T03:55:17.949Z,296.00
2018-06-16T03:56:17.956Z,308.00
2018-06-16T03:57:17.955Z,316.00
2018-06-16T03:58:17.960Z,324.00
2018-06-16T03:59:17.967Z,332.00
2018-06-16T04:00:17.969Z,344.00
2018-06-16T04:01:17.975Z,352.00
2018-06-16T04:02:17.981Z,360.00
2018-06-16T04:03:17.984Z,368.00
2018-06-16T04:04:17.987Z,376.00
2018-06-16T04:05:17.995Z,384.00
2018-06-16T04:06:18.015Z,396.00
2018-06-16T04:07:18.001Z,400.00
2018-06-16T04:08:18.005Z,412.00
2018-06-16T04:09:18.010Z,420.00
2018-06-16T04:10:18.015Z,428.00
2018-06-16T04:11:18.016Z,440.00
2018-06-16T04:12:18.023Z,452.00
2018-06-16T04:13:18.025Z,456.00
2018-06-16T04:14:18.031Z,464.00
2018-06-16T04:15:18.033Z,476.00
2018-06-16T04:16:18.043Z,480.00
2018-06-16T04:17:18.054Z,492.00
2018-06-16T04:18:18.056Z,496.00
2018-06-16T04:19:18.050Z,508.00
2018-06-16T04:20:18.056Z,516.00
2018-06-16T04:21:18.068Z,524.00
2018-06-16T04:22:18.067Z,532.00
2018-06-16T04:23:18.069Z,540.00
2018-06-16T04:24:18.074Z,548.00
2018-06-16T04:25:18.143Z,552.00
2018-06-16T04:26:18.085Z,560.00
2018-06-16T04:27:18.088Z,568.00
2018-06-16T04:28:18.094Z,572.00
2018-06-16T04:29:18.095Z,580.00
2018-06-16T04:30:18.101Z,588.00
2018-06-16T04:31:18.106Z,592.00
2018-06-16T04:32:18.114Z,600.00
2018-06-16T04:33:18.114Z,608.00
2018-06-16T04:34:18.122Z,616.00
2018-06-16T04:35:18.125Z,616.00
2018-06-16T04:36:18.135Z,624.00
2018-06-16T04:37:18.134Z,628.00
2018-06-16T04:38:18.136Z,632.00
2018-06-16T04:39:18.142Z,640.00
2018-06-16T04:40:18.146Z,644.00
2018-06-16T04:41:18.157Z,648.00
2018-06-16T04:42:18.157Z,652.00
2018-06-16T04:43:18.159Z,656.00
2018-06-16T04:44:18.166Z,660.00
2018-06-16T04:45:18.169Z,668.00
2018-06-16T04:46:18.176Z,672.00
2018-06-16T04:47:18.185Z,680.00
2018-06-16T04:48:18.188Z,684.00
2018-06-16T04:49:18.188Z,688.00
2018-06-16T04:50:18.196Z,696.00
2018-06-16T04:51:18.197Z,696.00
2018-06-16T04:52:18.199Z,708.00
2018-06-16T04:53:18.205Z,708.00
2018-06-16T04:54:18.212Z,712.00
2018-06-16T04:55:18.216Z,716.00
2018-06-16T04:56:18.220Z,720.00
2018-06-16T04:57:18.228Z,724.00
2018-06-16T04:58:18.231Z,728.00
2018-06-16T04:59:18.232Z,732.00
2018-06-16T05:00:18.238Z,740.00
2018-06-16T05:01:18.248Z,740.00
2018-06-16T05:02:18.245Z,748.00
2018-06-16T05:03:18.251Z,748.00
2018-06-16T05:04:18.257Z,752.00
2018-06-16T05:05:18.263Z,756.00
2018-06-16T05:06:18.267Z,760.00
2018-06-16T05:07:18.270Z,768.00
2018-06-16T05:08:18.276Z,768.00
2018-06-16T05:09:18.280Z,776.00
2018-06-16T05:10:18.286Z,776.00
2018-06-16T05:11:18.291Z,780.00
2018-06-16T05:12:18.297Z,784.00
2018-06-16T05:13:18.302Z,788.00
2018-06-16T05:14:18.305Z,792.00
2018-06-16T05:15:18.309Z,796.00
2018-06-16T05:16:18.317Z,804.00
2018-06-16T05:17:18.320Z,808.00
2018-06-16T05:18:18.326Z,812.00
2018-06-16T05:19:18.328Z,816.00
2018-06-16T05:20:18.336Z,820.00
2018-06-16T05:21:18.339Z,820.00
2018-06-16T05:22:18.343Z,824.00
2018-06-16T05:23:18.351Z,828.00
2018-06-16T05:24:18.355Z,832.00
2018-06-16T05:25:18.387Z,836.00
2018-06-16T05:26:18.364Z,840.00
2018-06-16T05:27:18.366Z,844.00
2018-06-16T05:28:18.373Z,848.00
2018-06-16T05:29:18.380Z,852.00
2018-06-16T05:30:18.389Z,852.00
2018-06-16T05:31:18.392Z,852.00
2018-06-16T05:32:18.395Z,856.00
2018-06-16T05:33:18.400Z,856.00
2018-06-16T05:34:18.405Z,860.00
2018-06-16T05:35:18.411Z,864.00
2018-06-16T05:36:18.422Z,868.00
2018-06-16T05:37:18.419Z,868.00
2018-06-16T05:38:18.428Z,868.00
2018-06-16T05:39:18.428Z,872.00
2018-06-16T05:40:18.435Z,876.00
2018-06-16T05:41:18.442Z,880.00
2018-06-16T05:42:18.452Z,880.00
2018-06-16T05:43:18.453Z,888.00
2018-06-16T05:44:18.453Z,888.00
2018-06-16T05:45:18.470Z,892.00
2018-06-16T05:46:18.468Z,892.00
2018-06-16T05:47:18.472Z,896.00
2018-06-16T05:48:18.476Z,900.00
2018-06-16T05:49:18.480Z,900.00
2018-06-16T05:50:18.489Z,900.00
2018-06-16T05:51:18.492Z,904.00
2018-06-16T05:52:18.499Z,908.00
2018-06-16T05:53:18.503Z,908.00
2018-06-16T05:54:18.511Z,912.00
2018-06-16T05:55:18.514Z,912.00
2018-06-16T05:56:18.518Z,912.00
2018-06-16T05:57:18.523Z,916.00
2018-06-16T05:58:18.534Z,916.00
2018-06-16T05:59:18.536Z,920.00
2018-06-16T06:00:18.539Z,924.00
2018-06-16T06:01:18.548Z,928.00
2018-06-16T06:02:18.554Z,932.00
2018-06-16T06:03:18.564Z,936.00
2018-06-16T06:04:18.563Z,940.00
2018-06-16T06:05:18.579Z,944.00
2018-06-16T06:06:18.580Z,948.00
2018-06-16T06:07:18.579Z,948.00
2018-06-16T06:08:18.584Z,952.00
2018-06-16T06:09:18.597Z,952.00
2018-06-16T06:10:18.616Z,952.00
2018-06-16T06:11:18.604Z,960.00
2018-06-16T06:12:18.613Z,960.00
2018-06-16T06:13:18.617Z,964.00
2018-06-16T06:14:18.626Z,964.00
2018-06-16T06:15:18.645Z,968.00
2018-06-16T06:16:18.639Z,968.00
2018-06-16T06:17:18.642Z,972.00
2018-06-16T06:18:18.646Z,976.00
2018-06-16T06:19:18.651Z,976.00
2018-06-16T06:20:18.656Z,976.00
2018-06-16T06:21:18.662Z,980.00
2018-06-16T06:22:18.671Z,984.00
2018-06-16T06:23:18.676Z,984.00
2018-06-16T06:24:18.682Z,988.00
2018-06-16T06:25:18.691Z,996.00
2018-06-16T06:26:18.693Z,1000.00
2018-06-16T06:27:18.697Z,1004.00
2018-06-16T06:28:18.705Z,1004.00
2018-06-16T06:29:18.710Z,1008.00
2018-06-16T06:30:18.717Z,1012.00
2018-06-16T06:31:18.724Z,1016.00
2018-06-16T06:32:18.731Z,1012.00
2018-06-16T06:33:18.741Z,1016.00
2018-06-16T06:34:18.744Z,1024.00
2018-06-16T06:35:18.750Z,1024.00
2018-06-16T06:36:18.755Z,1024.00
2018-06-16T06:37:18.761Z,1028.00
2018-06-16T06:38:18.768Z,1032.00
2018-06-16T06:39:18.774Z,1036.00
2018-06-16T06:40:18.780Z,1040.00
2018-06-16T06:41:18.787Z,1040.00
2018-06-16T06:42:18.902Z,1044.00
2018-06-16T06:43:18.800Z,1044.00
2018-06-16T06:44:18.809Z,1048.00
2018-06-16T06:45:18.812Z,1052.00
2018-06-16T06:46:18.820Z,1056.00
2018-06-16T06:47:18.826Z,1060.00
2018-06-16T06:48:18.831Z,1064.00
2018-06-16T06:49:18.840Z,1064.00
2018-06-16T06:50:18.851Z,1064.00
2018-06-16T06:51:18.850Z,1068.00
2018-06-16T06:52:18.964Z,1072.00
2018-06-16T06:53:18.865Z,1076.00
2018-06-16T06:54:18.871Z,1076.00
2018-06-16T06:55:18.878Z,1080.00
2018-06-16T06:56:18.890Z,1084.00
2018-06-16T06:57:18.891Z,1088.00
2018-06-16T06:58:18.898Z,1092.00
2018-06-16T06:59:18.906Z,1092.00
2018-06-16T07:00:18.917Z,1096.00
2018-06-16T07:01:18.918Z,1100.00
2018-06-16T07:02:18.925Z,1100.00
2018-06-16T07:03:18.940Z,1104.00
2018-06-16T07:04:18.937Z,1104.00
2018-06-16T07:05:18.945Z,1108.00
2018-06-16T07:06:18.955Z,1112.00
2018-06-16T07:07:18.959Z,1112.00
2018-06-16T07:08:18.970Z,1116.00
2018-06-16T07:09:18.979Z,1120.00
2018-06-16T07:10:18.980Z,1128.00
2018-06-16T07:11:18.988Z,1124.00
2018-06-16T07:12:18.994Z,1124.00
2018-06-16T07:13:19.001Z,1128.00
2018-06-16T07:14:19.017Z,1132.00
2018-06-16T07:15:19.015Z,1132.00
2018-06-16T07:16:19.023Z,1136.00
2018-06-16T07:17:19.031Z,1140.00
2018-06-16T07:18:19.037Z,1140.00
2018-06-16T07:19:19.045Z,1144.00
2018-06-16T07:20:19.056Z,1148.00
2018-06-16T07:21:19.059Z,1152.00
2018-06-16T07:22:19.070Z,1156.00
2018-06-16T07:23:19.071Z,1164.00
2018-06-16T07:24:19.081Z,1168.00
2018-06-16T07:25:19.087Z,1168.00
2018-06-16T07:26:19.095Z,1172.00
2018-06-16T07:27:19.104Z,1180.00
2018-06-16T07:28:19.110Z,1184.00
2018-06-16T07:29:19.140Z,1192.00
2018-06-16T07:30:19.125Z,1188.00
2018-06-16T07:31:19.132Z,1196.00
2018-06-16T07:32:19.141Z,1200.00
2018-06-16T07:33:19.147Z,1204.00
2018-06-16T07:34:19.159Z,1204.00
2018-06-16T07:35:19.169Z,1212.00
2018-06-16T07:36:19.171Z,1212.00
2018-06-16T07:37:19.194Z,1212.00
2018-06-16T07:38:19.187Z,1220.00
2018-06-16T07:39:19.212Z,1224.00
2018-06-16T07:40:19.199Z,1224.00
2018-06-16T07:41:19.211Z,1224.00
2018-06-16T07:42:19.223Z,1228.00
2018-06-16T07:43:19.227Z,1236.00
2018-06-16T07:44:19.231Z,1240.00
2018-06-16T07:45:19.241Z,1244.00
2018-06-16T07:46:19.248Z,1256.00
2018-06-16T07:47:19.256Z,1248.00
2018-06-16T07:48:19.267Z,1260.00
2018-06-16T07:49:19.289Z,1268.00
2018-06-16T07:50:19.279Z,1272.00
2018-06-16T07:51:19.287Z,1276.00
2018-06-16T07:52:19.294Z,1284.00
2018-06-16T07:53:19.303Z,1280.00
2018-06-16T07:54:19.309Z,1288.00
2018-06-16T07:55:19.320Z,1288.00
2018-06-16T07:56:19.325Z,1292.00
2018-06-16T07:57:19.333Z,1300.00
2018-06-16T07:58:19.346Z,1312.00
2018-06-16T07:59:19.351Z,1316.00
2018-06-16T08:00:19.363Z,1320.00
2018-06-16T08:01:19.367Z,1320.00
2018-06-16T08:02:19.375Z,1308.00
2018-06-16T08:03:19.382Z,1208.00
2018-06-16T08:04:19.395Z,1328.00
2018-06-16T08:05:19.403Z,1336.00
2018-06-16T08:06:19.409Z,1320.00
2018-06-16T08:07:19.417Z,1316.00
2018-06-16T08:08:19.423Z,1320.00
2018-06-16T08:09:19.432Z,1328.00
2018-06-16T08:10:19.441Z,1352.00
2018-06-16T08:11:19.448Z,1372.00
2018-06-16T08:12:19.457Z,1392.00
2018-06-16T08:13:19.463Z,1412.00
2018-06-16T08:14:19.473Z,1448.00
2018-06-16T08:15:19.487Z,1436.00
2018-06-16T08:16:19.491Z,1444.00
2018-06-16T08:17:19.503Z,1444.00
2018-06-16T08:18:19.512Z,1436.00
2018-06-16T08:19:19.518Z,1436.00
2018-06-16T08:20:19.528Z,1424.00
2018-06-16T08:21:19.533Z,1424.00
2018-06-16T08:22:19.541Z,1432.00
2018-06-16T08:23:19.550Z,1448.00
2018-06-16T08:24:19.560Z,1436.00
2018-06-16T08:25:19.572Z,1472.00
2018-06-16T08:26:19.577Z,1504.00
2018-06-16T08:27:19.594Z,1512.00
2018-06-16T08:28:19.593Z,1520.00
2018-06-16T08:29:19.610Z,1548.00
2018-06-16T08:30:19.614Z,1568.00
2018-06-16T08:31:19.620Z,1584.00
2018-06-16T08:32:19.627Z,1608.00
2018-06-16T08:33:19.643Z,1608.00
2018-06-16T08:34:19.650Z,1588.00
2018-06-16T08:35:19.662Z,1596.00
2018-06-16T08:36:19.666Z,1640.00
2018-06-16T08:37:19.673Z,1660.00
2018-06-16T08:38:19.687Z,1696.00
2018-06-16T08:39:19.696Z,1704.00
2018-06-16T08:40:19.698Z,1708.00
2018-06-16T08:41:19.713Z,1712.00
2018-06-16T08:42:19.722Z,1716.00
2018-06-16T08:43:19.770Z,1732.00
2018-06-16T08:44:19.739Z,1748.00
2018-06-16T08:45:19.749Z,1756.00
2018-06-16T08:46:19.754Z,1772.00
2018-06-16T08:47:19.764Z,1776.00
2018-06-16T08:48:19.771Z,1768.00
2018-06-16T08:49:19.781Z,1692.00
2018-06-16T08:50:19.789Z,1696.00
2018-06-16T08:51:19.798Z,1652.00
2018-06-16T08:52:19.807Z,1476.00
2018-06-16T08:53:19.815Z,1116.00
2018-06-16T08:54:19.829Z,1116.00
2018-06-16T08:55:19.856Z,1136.00
2018-06-16T08:56:19.844Z,1276.00
2018-06-16T08:57:19.855Z,1308.00
2018-06-16T08:58:19.865Z,1788.00
2018-06-16T08:59:19.885Z,1740.00
2018-06-16T09:00:19.891Z,1752.00
2018-06-16T09:01:19.899Z,1704.00
2018-06-16T09:02:19.901Z,1784.00
2018-06-16T09:03:19.909Z,1780.00
2018-06-16T09:04:19.919Z,1784.00
2018-06-16T09:05:19.927Z,1824.00
2018-06-16T09:06:19.938Z,1820.00
2018-06-16T09:07:19.947Z,1840.00
2018-06-16T09:08:19.958Z,1840.00
2018-06-16T09:09:19.979Z,1836.00
2018-06-16T09:10:19.976Z,1848.00
2018-06-16T09:11:19.987Z,1852.00
2018-06-16T09:12:19.994Z,1880.00
2018-06-16T09:13:20.009Z,1888.00
2018-06-16T09:14:20.017Z,1880.00
2018-06-16T09:15:20.025Z,1904.00
2018-06-16T09:16:20.036Z,1908.00
2018-06-16T09:17:20.080Z,1904.00
2018-06-16T09:18:20.052Z,1924.00
2018-06-16T09:19:20.067Z,1940.00
2018-06-16T09:20:20.070Z,1956.00
2018-06-16T09:21:20.089Z,1972.00
2018-06-16T09:22:20.091Z,2004.00
2018-06-16T09:23:20.103Z,2028.00
2018-06-16T09:24:20.110Z,2048.00
2018-06-16T09:25:20.120Z,2056.00
2018-06-16T09:26:20.128Z,2068.00
2018-06-16T09:27:20.140Z,2092.00
2018-06-16T09:28:20.149Z,2084.00
2018-06-16T09:29:20.158Z,2060.00
2018-06-16T09:30:20.175Z,2076.00
2018-06-16T09:31:20.180Z,2112.00
2018-06-16T09:32:20.189Z,2132.00
2018-06-16T09:33:20.198Z,2148.00
2018-06-16T09:34:20.216Z,2148.00
2018-06-16T09:35:20.220Z,2148.00
2018-06-16T09:36:20.345Z,2164.00
2018-06-16T09:37:20.248Z,2152.00
2018-06-16T09:38:20.248Z,2184.00
2018-06-16T09:39:20.257Z,2196.00
2018-06-16T09:40:20.270Z,2216.00
2018-06-16T09:41:20.278Z,2228.00
2018-06-16T09:42:20.290Z,2240.00
2018-06-16T09:43:20.300Z,2244.00
2018-06-16T09:44:20.312Z,2268.00
2018-06-16T09:45:20.327Z,2304.00
2018-06-16T09:46:20.333Z,2308.00
2018-06-16T09:47:20.342Z,2324.00
2018-06-16T09:48:20.354Z,2324.00
2018-06-16T09:49:20.368Z,2288.00
2018-06-16T09:50:20.378Z,2284.00
2018-06-16T09:51:20.382Z,2348.00
2018-06-16T09:52:20.392Z,2388.00
2018-06-16T09:53:20.407Z,2412.00
2018-06-16T09:54:20.420Z,2416.00
2018-06-16T09:55:20.428Z,2392.00
2018-06-16T09:56:20.436Z,2372.00
2018-06-16T09:57:20.448Z,2388.00
2018-06-16T09:58:20.456Z,2452.00
2018-06-16T09:59:20.468Z,2464.00
2018-06-16T10:00:20.477Z,2496.00
2018-06-16T10:01:20.486Z,2548.00
2018-06-16T10:02:20.501Z,2564.00
2018-06-16T10:03:20.546Z,2564.00
2018-06-16T10:04:20.524Z,2544.00
2018-06-16T10:05:20.530Z,2504.00
2018-06-16T10:06:20.550Z,2432.00
2018-06-16T10:07:20.554Z,2436.00
2018-06-16T10:08:20.565Z,2416.00
2018-06-16T10:09:20.637Z,2352.00
2018-06-16T10:10:20.586Z,2360.00
2018-06-16T10:11:20.598Z,2376.00
2018-06-16T10:12:20.606Z,2416.00
2018-06-16T10:13:20.627Z,2420.00
2018-06-16T10:14:20.626Z,2452.00
2018-06-16T10:15:20.644Z,2444.00
2018-06-16T10:16:20.649Z,2432.00
2018-06-16T10:17:20.657Z,2516.00
2018-06-16T10:18:20.676Z,2484.00
2018-06-16T10:19:20.684Z,2484.00
2018-06-16T10:20:20.693Z,2496.00
2018-06-16T10:21:20.763Z,2444.00
2018-06-16T10:22:20.716Z,2504.00
2018-06-16T10:23:20.725Z,2460.00
2018-06-16T10:24:20.741Z,2352.00
2018-06-16T10:25:20.751Z,2296.00
2018-06-16T10:26:20.766Z,2420.00
2018-06-16T10:27:20.772Z,2528.00
2018-06-16T10:28:20.781Z,2432.00
2018-06-16T10:29:20.792Z,2484.00
2018-06-16T10:30:20.805Z,2444.00
2018-06-16T10:31:20.811Z,2436.00
2018-06-16T10:32:20.824Z,2440.00
2018-06-16T10:33:20.892Z,2540.00
2018-06-16T10:34:20.851Z,2532.00
2018-06-16T10:35:20.862Z,2536.00
2018-06-16T10:36:20.892Z,2648.00
2018-06-16T10:37:20.881Z,2668.00
2018-06-16T10:38:20.896Z,2664.00
2018-06-16T10:39:20.907Z,2680.00
2018-06-16T10:40:20.914Z,2648.00
2018-06-16T10:41:20.928Z,2592.00
2018-06-16T10:42:20.939Z,2560.00
2018-06-16T10:43:20.955Z,2544.00
2018-06-16T10:44:20.960Z,2672.00
2018-06-16T10:45:20.975Z,2696.00
2018-06-16T10:46:20.982Z,2768.00
2018-06-16T10:47:20.996Z,2788.00
2018-06-16T10:48:21.005Z,2840.00
2018-06-16T10:49:21.015Z,2860.00
2018-06-16T10:50:21.036Z,2836.00
2018-06-16T10:51:21.038Z,2844.00
2018-06-16T10:52:21.060Z,2812.00
2018-06-16T10:53:21.077Z,2800.00
2018-06-16T10:54:21.073Z,2812.00
2018-06-16T10:55:21.086Z,2808.00
2018-06-16T10:56:21.096Z,2760.00
2018-06-16T10:57:21.108Z,2780.00
2018-06-16T10:58:21.120Z,2796.00
2018-06-16T10:59:21.132Z,2792.00
2018-06-16T11:00:21.172Z,2824.00
2018-06-16T11:01:21.191Z,2856.00
2018-06-16T11:02:21.166Z,2852.00
2018-06-16T11:03:21.175Z,2836.00
2018-06-16T11:04:21.188Z,2860.00
2018-06-16T11:05:21.216Z,2872.00
2018-06-16T11:06:21.225Z,2936.00
2018-06-16T11:07:21.220Z,2932.00
2018-06-16T11:08:21.235Z,2936.00
2018-06-16T11:09:21.273Z,2924.00
2018-06-16T11:10:21.257Z,2948.00
2018-06-16T11:11:21.272Z,2992.00
2018-06-16T11:12:21.285Z,2980.00
2018-06-16T11:13:21.296Z,3008.00
2018-06-16T11:14:21.304Z,2980.00
2018-06-16T11:15:21.316Z,2840.00
2018-06-16T11:16:21.334Z,2748.00
2018-06-16T11:17:21.340Z,2932.00
2018-06-16T11:18:21.350Z,2876.00
2018-06-16T11:19:21.366Z,2848.00
2018-06-16T11:20:21.382Z,2956.00
2018-06-16T11:21:21.385Z,3016.00
2018-06-16T11:22:21.398Z,3064.00
2018-06-16T11:23:21.413Z,3008.00
2018-06-16T11:24:21.421Z,3060.00
2018-06-16T11:25:21.437Z,3044.00
2018-06-16T11:26:21.447Z,2836.00
2018-06-16T11:27:21.460Z,2840.00
2018-06-16T11:28:21.469Z,3064.00
2018-06-16T11:29:21.485Z,3080.00
2018-06-16T11:30:21.541Z,3168.00
2018-06-16T11:31:21.518Z,3268.00
2018-06-16T11:32:21.517Z,3196.00
2018-06-16T11:33:21.527Z,3172.00
2018-06-16T11:34:21.549Z,1684.00
2018-06-16T11:35:21.573Z,2816.00
2018-06-16T11:36:21.604Z,2940.00
2018-06-16T11:37:21.666Z,3132.00
2018-06-16T11:38:21.632Z,3156.00
2018-06-16T11:39:21.614Z,3288.00
2018-06-16T11:40:21.612Z,3248.00
2018-06-16T11:41:21.637Z,3248.00
2018-06-16T11:42:21.638Z,3376.00
2018-06-16T11:43:21.678Z,3336.00
2018-06-16T11:44:21.692Z,3404.00
2018-06-16T11:45:21.673Z,3404.00
2018-06-16T11:46:21.694Z,3388.00
2018-06-16T11:47:21.696Z,3216.00
2018-06-16T11:48:21.712Z,3464.00
2018-06-16T11:49:21.728Z,3448.00
2018-06-16T11:50:21.738Z,3008.00
2018-06-16T11:51:21.747Z,3188.00
2018-06-16T11:52:21.763Z,3244.00
2018-06-16T11:53:21.789Z,3264.00
2018-06-16T11:54:21.782Z,3196.00
2018-06-16T11:55:21.811Z,3208.00
2018-06-16T11:56:21.805Z,3148.00
2018-06-16T11:57:21.816Z,3096.00
2018-06-16T11:58:21.831Z,3008.00
2018-06-16T11:59:21.844Z,3028.00
2018-06-16T12:00:21.864Z,3184.00
2018-06-16T12:01:21.874Z,3216.00
2018-06-16T12:02:21.881Z,3296.00
2018-06-16T12:03:21.895Z,3316.00
2018-06-16T12:04:21.912Z,3240.00
2018-06-16T12:05:21.939Z,3328.00
2018-06-16T12:06:21.924Z,3368.00
2018-06-16T12:07:21.938Z,3344.00
2018-06-16T12:08:21.948Z,3392.00
2018-06-16T12:09:21.962Z,3416.00
2018-06-16T12:10:22.086Z,3468.00
2018-06-16T12:11:21.988Z,3432.00
2018-06-16T12:12:22.014Z,3356.00
2018-06-16T12:13:22.010Z,3276.00
2018-06-16T12:14:22.025Z,3328.00
2018-06-16T12:15:22.035Z,3180.00
2018-06-16T12:16:22.053Z,3156.00
2018-06-16T12:17:22.064Z,3076.00
2018-06-16T12:18:22.071Z,2920.00
2018-06-16T12:19:22.096Z,2820.00
2018-06-16T12:20:22.106Z,2704.00
2018-06-16T12:21:22.112Z,2832.00
2018-06-16T12:22:22.125Z,2916.00
2018-06-16T12:23:22.139Z,2840.00
2018-06-16T12:24:22.149Z,2820.00
2018-06-16T12:25:22.162Z,2756.00
2018-06-16T12:26:22.179Z,2820.00
2018-06-16T12:27:22.237Z,2724.00
2018-06-16T12:28:22.197Z,2712.00
2018-06-16T12:29:22.210Z,2700.00
2018-06-16T12:30:22.246Z,2648.00
2018-06-16T12:31:22.232Z,2356.00